sensor_id;sensor_type;location;lat;lon;timestamp;P1;durP1;ratioP1;P2;durP2;ratioP2
8151;SDS011;4117;53.622;9.958;2023-12-20T00:01:01;8.97;;;2.00;;
8151;SDS011;4117;53.622;9.958;2023-12-20T00:03:29;12.93;;;2.00;;
8151;SDS011;4117;53.622;9.958;2023-12-20T00:05:56;11.43;;;2.23;;
8151;SDS011;4117;53.622;9.958;2023-12-20T00:08:23;20.43;;;2.50;;
8151;SDS011;4117;53.622;9.958;2023-12-20T00:10:51;11.20;;;2.00;;
8151;SDS011;4117;53.622;9.958;2023-12-20T00:13:18;10.33;;;2.20;;
8151;SDS011;4117;53.622;9.958;2023-12-20T00:15:45;12.43;;;2.30;;
8151;SDS011;4117;53.622;9.958;2023-12-20T00:18:11;6.80;;;1.90;;
8151;SDS011;4117;53.622;9.958;2023-12-20T00:20:38;15.13;;;2.40;;
8151;SDS011;4117;53.622;9.958;2023-12-20T00:23:05;10.57;;;2.40;;
8151;SDS011;4117;53.622;9.958;2023-12-20T00:25:33;8.37;;;1.73;;
8151;SDS011;4117;53.622;9.958;2023-12-20T00:28:02;14.00;;;2.33;;
8151;SDS011;4117;53.622;9.958;2023-12-20T00:30:29;16.53;;;2.30;;
8151;SDS011;4117;53.622;9.958;2023-12-20T00:32:56;15.80;;;2.50;;
8151;SDS011;4117;53.622;9.958;2023-12-20T00:35:23;11.73;;;2.13;;
8151;SDS011;4117;53.622;9.958;2023-12-20T00:37:50;9.63;;;2.10;;
8151;SDS011;4117;53.622;9.958;2023-12-20T00:40:17;11.30;;;2.33;;
8151;SDS011;4117;53.622;9.958;2023-12-20T00:42:44;14.13;;;2.87;;
8151;SDS011;4117;53.622;9.958;2023-12-20T00:45:13;11.30;;;2.23;;
8151;SDS011;4117;53.622;9.958;2023-12-20T00:47:40;12.77;;;2.60;;
8151;SDS011;4117;53.622;9.958;2023-12-20T00:50:08;10.40;;;2.10;;
8151;SDS011;4117;53.622;9.958;2023-12-20T00:52:35;10.83;;;2.23;;
8151;SDS011;4117;53.622;9.958;2023-12-20T00:55:02;11.90;;;2.27;;
8151;SDS011;4117;53.622;9.958;2023-12-20T00:57:30;11.10;;;2.13;;
8151;SDS011;4117;53.622;9.958;2023-12-20T00:59:57;14.10;;;2.30;;
8151;SDS011;4117;53.622;9.958;2023-12-20T01:02:25;14.03;;;2.60;;
8151;SDS011;4117;53.622;9.958;2023-12-20T01:04:53;14.10;;;2.43;;
8151;SDS011;4117;53.622;9.958;2023-12-20T01:07:20;11.93;;;2.23;;
8151;SDS011;4117;53.622;9.958;2023-12-20T01:09:46;13.73;;;2.03;;
8151;SDS011;4117;53.622;9.958;2023-12-20T01:12:14;10.33;;;2.20;;
8151;SDS011;4117;53.622;9.958;2023-12-20T01:14:41;11.03;;;1.93;;
8151;SDS011;4117;53.622;9.958;2023-12-20T01:17:08;13.37;;;2.47;;
8151;SDS011;4117;53.622;9.958;2023-12-20T01:19:36;14.03;;;2.60;;
8151;SDS011;4117;53.622;9.958;2023-12-20T01:22:03;12.13;;;2.63;;
8151;SDS011;4117;53.622;9.958;2023-12-20T01:24:30;15.67;;;2.60;;
8151;SDS011;4117;53.622;9.958;2023-12-20T01:26:57;12.97;;;2.13;;
8151;SDS011;4117;53.622;9.958;2023-12-20T01:29:24;9.87;;;2.37;;
8151;SDS011;4117;53.622;9.958;2023-12-20T01:31:51;16.13;;;2.83;;
8151;SDS011;4117;53.622;9.958;2023-12-20T01:34:18;12.77;;;2.30;;
8151;SDS011;4117;53.622;9.958;2023-12-20T01:36:47;11.67;;;2.30;;
8151;SDS011;4117;53.622;9.958;2023-12-20T01:39:14;17.70;;;2.40;;
8151;SDS011;4117;53.622;9.958;2023-12-20T01:41:43;12.33;;;2.47;;
8151;SDS011;4117;53.622;9.958;2023-12-20T01:44:10;12.33;;;2.20;;
8151;SDS011;4117;53.622;9.958;2023-12-20T01:46:37;9.30;;;1.70;;
8151;SDS011;4117;53.622;9.958;2023-12-20T01:49:04;14.70;;;2.63;;
8151;SDS011;4117;53.622;9.958;2023-12-20T01:51:32;14.13;;;2.23;;
8151;SDS011;4117;53.622;9.958;2023-12-20T01:54:01;14.07;;;2.33;;
8151;SDS011;4117;53.622;9.958;2023-12-20T01:56:28;10.70;;;2.07;;
8151;SDS011;4117;53.622;9.958;2023-12-20T01:58:57;11.90;;;2.30;;
8151;SDS011;4117;53.622;9.958;2023-12-20T02:01:24;15.63;;;2.63;;
8151;SDS011;4117;53.622;9.958;2023-12-20T02:03:53;8.77;;;2.20;;
8151;SDS011;4117;53.622;9.958;2023-12-20T02:06:21;11.40;;;2.30;;
8151;SDS011;4117;53.622;9.958;2023-12-20T02:08:49;15.33;;;2.30;;
8151;SDS011;4117;53.622;9.958;2023-12-20T02:11:17;11.97;;;2.00;;
8151;SDS011;4117;53.622;9.958;2023-12-20T02:13:44;12.47;;;2.63;;
8151;SDS011;4117;53.622;9.958;2023-12-20T02:16:11;14.53;;;2.43;;
8151;SDS011;4117;53.622;9.958;2023-12-20T02:18:39;14.33;;;2.20;;
8151;SDS011;4117;53.622;9.958;2023-12-20T02:21:06;15.03;;;2.40;;
8151;SDS011;4117;53.622;9.958;2023-12-20T02:23:34;14.80;;;2.77;;
8151;SDS011;4117;53.622;9.958;2023-12-20T02:26:01;10.53;;;2.10;;
8151;SDS011;4117;53.622;9.958;2023-12-20T02:28:29;14.53;;;2.60;;
8151;SDS011;4117;53.622;9.958;2023-12-20T02:30:57;16.67;;;2.43;;
8151;SDS011;4117;53.622;9.958;2023-12-20T02:33:23;16.23;;;2.60;;
8151;SDS011;4117;53.622;9.958;2023-12-20T02:35:50;8.47;;;2.00;;
8151;SDS011;4117;53.622;9.958;2023-12-20T02:38:17;14.50;;;2.43;;
8151;SDS011;4117;53.622;9.958;2023-12-20T02:40:46;13.23;;;2.57;;
8151;SDS011;4117;53.622;9.958;2023-12-20T02:43:13;11.37;;;2.50;;
8151;SDS011;4117;53.622;9.958;2023-12-20T02:45:40;9.80;;;2.00;;
8151;SDS011;4117;53.622;9.958;2023-12-20T02:48:07;9.07;;;2.20;;
8151;SDS011;4117;53.622;9.958;2023-12-20T02:50:33;9.80;;;2.23;;
8151;SDS011;4117;53.622;9.958;2023-12-20T02:53:00;12.90;;;2.20;;
8151;SDS011;4117;53.622;9.958;2023-12-20T02:55:27;17.03;;;2.53;;
8151;SDS011;4117;53.622;9.958;2023-12-20T02:57:56;12.60;;;2.40;;
8151;SDS011;4117;53.622;9.958;2023-12-20T03:00:23;13.67;;;2.10;;
8151;SDS011;4117;53.622;9.958;2023-12-20T03:02:50;11.23;;;2.30;;
8151;SDS011;4117;53.622;9.958;2023-12-20T03:05:17;11.13;;;2.10;;
8151;SDS011;4117;53.622;9.958;2023-12-20T03:07:45;10.73;;;2.00;;
8151;SDS011;4117;53.622;9.958;2023-12-20T03:10:12;10.23;;;1.90;;
8151;SDS011;4117;53.622;9.958;2023-12-20T03:12:39;10.40;;;1.90;;
8151;SDS011;4117;53.622;9.958;2023-12-20T03:15:08;14.40;;;2.33;;
8151;SDS011;4117;53.622;9.958;2023-12-20T03:17:35;14.83;;;2.50;;
8151;SDS011;4117;53.622;9.958;2023-12-20T03:20:03;11.33;;;2.37;;
8151;SDS011;4117;53.622;9.958;2023-12-20T03:22:30;8.07;;;2.37;;
8151;SDS011;4117;53.622;9.958;2023-12-20T03:24:57;10.37;;;2.10;;
8151;SDS011;4117;53.622;9.958;2023-12-20T03:27:24;9.93;;;2.07;;
8151;SDS011;4117;53.622;9.958;2023-12-20T03:29:51;15.37;;;2.97;;
8151;SDS011;4117;53.622;9.958;2023-12-20T03:32:19;9.07;;;2.47;;
8151;SDS011;4117;53.622;9.958;2023-12-20T03:34:46;12.83;;;2.00;;
8151;SDS011;4117;53.622;9.958;2023-12-20T03:37:13;13.57;;;2.57;;
8151;SDS011;4117;53.622;9.958;2023-12-20T03:39:40;14.73;;;2.23;;
8151;SDS011;4117;53.622;9.958;2023-12-20T03:42:07;14.03;;;2.20;;
8151;SDS011;4117;53.622;9.958;2023-12-20T03:44:34;10.60;;;2.07;;
8151;SDS011;4117;53.622;9.958;2023-12-20T03:47:01;12.60;;;2.40;;
8151;SDS011;4117;53.622;9.958;2023-12-20T03:49:29;10.53;;;2.10;;
8151;SDS011;4117;53.622;9.958;2023-12-20T03:51:56;14.63;;;2.43;;
8151;SDS011;4117;53.622;9.958;2023-12-20T03:54:23;10.07;;;2.43;;
8151;SDS011;4117;53.622;9.958;2023-12-20T03:56:50;15.93;;;2.90;;
8151;SDS011;4117;53.622;9.958;2023-12-20T03:59:17;6.80;;;1.80;;
8151;SDS011;4117;53.622;9.958;2023-12-20T04:01:44;7.70;;;1.90;;
8151;SDS011;4117;53.622;9.958;2023-12-20T04:04:12;8.77;;;2.00;;
8151;SDS011;4117;53.622;9.958;2023-12-20T04:06:41;17.63;;;2.20;;
8151;SDS011;4117;53.622;9.958;2023-12-20T04:09:08;9.77;;;2.20;;
8151;SDS011;4117;53.622;9.958;2023-12-20T04:11:35;10.27;;;1.80;;
8151;SDS011;4117;53.622;9.958;2023-12-20T04:14:03;11.83;;;2.20;;
8151;SDS011;4117;53.622;9.958;2023-12-20T04:16:33;5.77;;;2.20;;
8151;SDS011;4117;53.622;9.958;2023-12-20T04:19:00;10.43;;;2.40;;
8151;SDS011;4117;53.622;9.958;2023-12-20T04:21:27;8.77;;;2.37;;
8151;SDS011;4117;53.622;9.958;2023-12-20T04:23:58;9.77;;;2.00;;
8151;SDS011;4117;53.622;9.958;2023-12-20T04:26:25;9.13;;;2.20;;
8151;SDS011;4117;53.622;9.958;2023-12-20T04:28:52;17.33;;;2.53;;
8151;SDS011;4117;53.622;9.958;2023-12-20T04:31:19;19.47;;;2.73;;
8151;SDS011;4117;53.622;9.958;2023-12-20T04:33:46;9.17;;;2.10;;
8151;SDS011;4117;53.622;9.958;2023-12-20T04:36:13;14.40;;;2.03;;
8151;SDS011;4117;53.622;9.958;2023-12-20T04:38:39;9.87;;;2.63;;
8151;SDS011;4117;53.622;9.958;2023-12-20T04:41:08;12.10;;;2.23;;
8151;SDS011;4117;53.622;9.958;2023-12-20T04:43:35;8.77;;;2.00;;
8151;SDS011;4117;53.622;9.958;2023-12-20T04:46:02;8.53;;;2.13;;
8151;SDS011;4117;53.622;9.958;2023-12-20T04:48:29;12.33;;;2.30;;
8151;SDS011;4117;53.622;9.958;2023-12-20T04:50:56;7.63;;;2.00;;
8151;SDS011;4117;53.622;9.958;2023-12-20T04:53:23;12.07;;;2.43;;
8151;SDS011;4117;53.622;9.958;2023-12-20T04:55:51;10.83;;;2.13;;
8151;SDS011;4117;53.622;9.958;2023-12-20T04:58:19;11.03;;;2.20;;
8151;SDS011;4117;53.622;9.958;2023-12-20T05:00:46;9.47;;;2.07;;
8151;SDS011;4117;53.622;9.958;2023-12-20T05:03:13;12.10;;;2.17;;
8151;SDS011;4117;53.622;9.958;2023-12-20T05:05:40;13.43;;;2.27;;
8151;SDS011;4117;53.622;9.958;2023-12-20T05:08:07;13.30;;;2.30;;
8151;SDS011;4117;53.622;9.958;2023-12-20T05:10:33;17.33;;;2.67;;
8151;SDS011;4117;53.622;9.958;2023-12-20T05:13:01;10.50;;;2.03;;
8151;SDS011;4117;53.622;9.958;2023-12-20T05:15:30;12.73;;;2.27;;
8151;SDS011;4117;53.622;9.958;2023-12-20T05:17:57;19.67;;;3.23;;
8151;SDS011;4117;53.622;9.958;2023-12-20T05:20:23;13.13;;;2.60;;
8151;SDS011;4117;53.622;9.958;2023-12-20T05:22:50;13.83;;;2.23;;
8151;SDS011;4117;53.622;9.958;2023-12-20T05:25:17;9.93;;;2.07;;
8151;SDS011;4117;53.622;9.958;2023-12-20T05:27:44;11.13;;;2.87;;
8151;SDS011;4117;53.622;9.958;2023-12-20T05:30:11;10.53;;;2.60;;
8151;SDS011;4117;53.622;9.958;2023-12-20T05:32:40;9.23;;;2.27;;
8151;SDS011;4117;53.622;9.958;2023-12-20T05:35:07;8.57;;;2.30;;
8151;SDS011;4117;53.622;9.958;2023-12-20T05:37:34;16.10;;;2.50;;
8151;SDS011;4117;53.622;9.958;2023-12-20T05:40:01;12.30;;;2.57;;
8151;SDS011;4117;53.622;9.958;2023-12-20T05:42:29;15.57;;;2.67;;
8151;SDS011;4117;53.622;9.958;2023-12-20T05:44:56;11.00;;;2.37;;
8151;SDS011;4117;53.622;9.958;2023-12-20T05:47:23;13.77;;;2.50;;
8151;SDS011;4117;53.622;9.958;2023-12-20T05:49:51;16.00;;;2.80;;
8151;SDS011;4117;53.622;9.958;2023-12-20T05:52:18;13.33;;;2.50;;
8151;SDS011;4117;53.622;9.958;2023-12-20T05:54:45;15.70;;;2.77;;
8151;SDS011;4117;53.622;9.958;2023-12-20T05:57:12;13.10;;;2.70;;
8151;SDS011;4117;53.622;9.958;2023-12-20T05:59:39;13.10;;;2.60;;
8151;SDS011;4117;53.622;9.958;2023-12-20T06:02:06;12.60;;;2.50;;
8151;SDS011;4117;53.622;9.958;2023-12-20T06:04:33;12.30;;;2.67;;
8151;SDS011;4117;53.622;9.958;2023-12-20T06:07:02;12.43;;;2.50;;
8151;SDS011;4117;53.622;9.958;2023-12-20T06:09:29;9.10;;;2.00;;
8151;SDS011;4117;53.622;9.958;2023-12-20T06:12:34;9.00;;;2.80;;
8151;SDS011;4117;53.622;9.958;2023-12-20T06:15:01;18.30;;;3.07;;
8151;SDS011;4117;53.622;9.958;2023-12-20T06:17:28;9.17;;;2.57;;
8151;SDS011;4117;53.622;9.958;2023-12-20T06:19:56;9.93;;;2.30;;
8151;SDS011;4117;53.622;9.958;2023-12-20T06:22:24;11.27;;;2.53;;
8151;SDS011;4117;53.622;9.958;2023-12-20T06:24:51;10.53;;;2.60;;
8151;SDS011;4117;53.622;9.958;2023-12-20T06:27:18;13.20;;;2.23;;
8151;SDS011;4117;53.622;9.958;2023-12-20T06:29:45;11.63;;;2.60;;
8151;SDS011;4117;53.622;9.958;2023-12-20T06:32:12;14.87;;;2.73;;
8151;SDS011;4117;53.622;9.958;2023-12-20T06:34:39;15.17;;;2.50;;
8151;SDS011;4117;53.622;9.958;2023-12-20T06:37:06;13.77;;;3.07;;
8151;SDS011;4117;53.622;9.958;2023-12-20T06:39:34;13.67;;;2.90;;
8151;SDS011;4117;53.622;9.958;2023-12-20T06:42:02;11.03;;;2.57;;
8151;SDS011;4117;53.622;9.958;2023-12-20T06:44:29;15.47;;;3.13;;
8151;SDS011;4117;53.622;9.958;2023-12-20T06:46:56;11.97;;;2.93;;
8151;SDS011;4117;53.622;9.958;2023-12-20T06:49:23;13.57;;;2.53;;
8151;SDS011;4117;53.622;9.958;2023-12-20T06:51:50;11.57;;;2.63;;
8151;SDS011;4117;53.622;9.958;2023-12-20T06:54:18;12.97;;;2.83;;
8151;SDS011;4117;53.622;9.958;2023-12-20T06:56:46;12.87;;;2.50;;
8151;SDS011;4117;53.622;9.958;2023-12-20T06:59:13;15.83;;;3.00;;
8151;SDS011;4117;53.622;9.958;2023-12-20T07:01:41;15.43;;;2.60;;
8151;SDS011;4117;53.622;9.958;2023-12-20T07:04:08;18.20;;;2.83;;
8151;SDS011;4117;53.622;9.958;2023-12-20T07:06:35;16.03;;;3.13;;
8151;SDS011;4117;53.622;9.958;2023-12-20T07:09:02;16.07;;;2.83;;
8151;SDS011;4117;53.622;9.958;2023-12-20T07:11:29;12.40;;;2.97;;
8151;SDS011;4117;53.622;9.958;2023-12-20T07:13:57;16.13;;;3.07;;
8151;SDS011;4117;53.622;9.958;2023-12-20T07:16:24;15.37;;;2.87;;
8151;SDS011;4117;53.622;9.958;2023-12-20T07:18:51;13.13;;;3.23;;
8151;SDS011;4117;53.622;9.958;2023-12-20T07:21:18;13.17;;;3.10;;
8151;SDS011;4117;53.622;9.958;2023-12-20T07:23:45;13.67;;;2.40;;
8151;SDS011;4117;53.622;9.958;2023-12-20T07:26:12;13.83;;;2.77;;
8151;SDS011;4117;53.622;9.958;2023-12-20T07:28:39;16.23;;;3.03;;
8151;SDS011;4117;53.622;9.958;2023-12-20T07:31:08;18.13;;;2.80;;
8151;SDS011;4117;53.622;9.958;2023-12-20T07:33:35;12.77;;;2.60;;
8151;SDS011;4117;53.622;9.958;2023-12-20T07:36:02;9.93;;;2.60;;
8151;SDS011;4117;53.622;9.958;2023-12-20T07:38:29;17.10;;;2.93;;
8151;SDS011;4117;53.622;9.958;2023-12-20T07:40:56;16.60;;;2.97;;
8151;SDS011;4117;53.622;9.958;2023-12-20T07:43:23;13.23;;;2.80;;
8151;SDS011;4117;53.622;9.958;2023-12-20T07:45:49;10.43;;;2.10;;
8151;SDS011;4117;53.622;9.958;2023-12-20T07:48:17;15.97;;;3.10;;
8151;SDS011;4117;53.622;9.958;2023-12-20T07:50:44;16.23;;;2.93;;
8151;SDS011;4117;53.622;9.958;2023-12-20T07:53:11;17.07;;;3.37;;
8151;SDS011;4117;53.622;9.958;2023-12-20T07:55:38;16.33;;;3.23;;
8151;SDS011;4117;53.622;9.958;2023-12-20T07:58:05;15.53;;;2.77;;
8151;SDS011;4117;53.622;9.958;2023-12-20T08:00:32;20.30;;;4.10;;
8151;SDS011;4117;53.622;9.958;2023-12-20T08:02:59;15.40;;;2.83;;
8151;SDS011;4117;53.622;9.958;2023-12-20T08:05:29;10.40;;;3.10;;
8151;SDS011;4117;53.622;9.958;2023-12-20T08:07:56;14.93;;;3.33;;
8151;SDS011;4117;53.622;9.958;2023-12-20T08:10:23;16.03;;;3.13;;
8151;SDS011;4117;53.622;9.958;2023-12-20T08:12:50;10.07;;;2.80;;
8151;SDS011;4117;53.622;9.958;2023-12-20T08:15:17;16.40;;;3.50;;
8151;SDS011;4117;53.622;9.958;2023-12-20T08:17:44;12.13;;;2.77;;
8151;SDS011;4117;53.622;9.958;2023-12-20T08:20:11;15.60;;;3.30;;
8151;SDS011;4117;53.622;9.958;2023-12-20T08:22:39;17.27;;;3.53;;
8151;SDS011;4117;53.622;9.958;2023-12-20T08:25:07;15.27;;;3.40;;
8151;SDS011;4117;53.622;9.958;2023-12-20T08:27:36;11.43;;;2.77;;
8151;SDS011;4117;53.622;9.958;2023-12-20T08:30:06;10.43;;;2.60;;
8151;SDS011;4117;53.622;9.958;2023-12-20T08:32:35;19.53;;;3.80;;
8151;SDS011;4117;53.622;9.958;2023-12-20T08:35:02;13.67;;;3.23;;
8151;SDS011;4117;53.622;9.958;2023-12-20T08:37:31;14.60;;;3.00;;
8151;SDS011;4117;53.622;9.958;2023-12-20T08:40:00;20.40;;;3.30;;
8151;SDS011;4117;53.622;9.958;2023-12-20T08:42:26;14.30;;;3.57;;
8151;SDS011;4117;53.622;9.958;2023-12-20T08:44:56;21.20;;;3.10;;
8151;SDS011;4117;53.622;9.958;2023-12-20T08:47:23;16.20;;;3.53;;
8151;SDS011;4117;53.622;9.958;2023-12-20T08:49:50;15.10;;;2.90;;
8151;SDS011;4117;53.622;9.958;2023-12-20T08:52:21;13.13;;;3.07;;
8151;SDS011;4117;53.622;9.958;2023-12-20T08:54:48;15.10;;;2.60;;
8151;SDS011;4117;53.622;9.958;2023-12-20T08:57:18;11.53;;;2.60;;
8151;SDS011;4117;53.622;9.958;2023-12-20T08:59:46;12.73;;;2.90;;
8151;SDS011;4117;53.622;9.958;2023-12-20T09:02:13;13.27;;;2.60;;
8151;SDS011;4117;53.622;9.958;2023-12-20T09:04:41;12.47;;;2.70;;
8151;SDS011;4117;53.622;9.958;2023-12-20T09:07:20;17.00;;;3.23;;
8151;SDS011;4117;53.622;9.958;2023-12-20T09:09:47;11.00;;;2.83;;
8151;SDS011;4117;53.622;9.958;2023-12-20T09:12:14;12.90;;;2.87;;
8151;SDS011;4117;53.622;9.958;2023-12-20T09:14:43;10.37;;;2.43;;
8151;SDS011;4117;53.622;9.958;2023-12-20T09:17:10;11.47;;;2.33;;
8151;SDS011;4117;53.622;9.958;2023-12-20T09:19:37;12.80;;;2.60;;
8151;SDS011;4117;53.622;9.958;2023-12-20T09:22:04;10.57;;;1.93;;
8151;SDS011;4117;53.622;9.958;2023-12-20T09:24:31;6.00;;;1.90;;
8151;SDS011;4117;53.622;9.958;2023-12-20T09:26:58;7.33;;;2.37;;
8151;SDS011;4117;53.622;9.958;2023-12-20T09:29:25;5.37;;;1.77;;
8151;SDS011;4117;53.622;9.958;2023-12-20T09:31:53;7.17;;;2.00;;
8151;SDS011;4117;53.622;9.958;2023-12-20T09:34:20;9.67;;;1.90;;
8151;SDS011;4117;53.622;9.958;2023-12-20T09:36:47;6.80;;;1.53;;
8151;SDS011;4117;53.622;9.958;2023-12-20T09:39:14;6.93;;;1.77;;
8151;SDS011;4117;53.622;9.958;2023-12-20T09:41:44;6.67;;;1.57;;
8151;SDS011;4117;53.622;9.958;2023-12-20T09:44:13;4.37;;;1.30;;
8151;SDS011;4117;53.622;9.958;2023-12-20T09:46:44;6.63;;;1.67;;
8151;SDS011;4117;53.622;9.958;2023-12-20T09:49:15;4.00;;;1.30;;
8151;SDS011;4117;53.622;9.958;2023-12-20T09:51:44;5.33;;;1.63;;
8151;SDS011;4117;53.622;9.958;2023-12-20T09:54:12;4.83;;;1.20;;
8151;SDS011;4117;53.622;9.958;2023-12-20T09:56:41;3.13;;;1.10;;
8151;SDS011;4117;53.622;9.958;2023-12-20T09:59:08;4.83;;;1.10;;
8151;SDS011;4117;53.622;9.958;2023-12-20T10:01:35;4.03;;;1.10;;
8151;SDS011;4117;53.622;9.958;2023-12-20T10:04:04;3.37;;;0.90;;
8151;SDS011;4117;53.622;9.958;2023-12-20T10:06:35;3.90;;;1.07;;
8151;SDS011;4117;53.622;9.958;2023-12-20T10:09:02;2.20;;;0.80;;
8151;SDS011;4117;53.622;9.958;2023-12-20T10:11:30;3.43;;;1.03;;
8151;SDS011;4117;53.622;9.958;2023-12-20T10:13:59;5.07;;;1.00;;
8151;SDS011;4117;53.622;9.958;2023-12-20T10:16:27;3.93;;;0.90;;
8151;SDS011;4117;53.622;9.958;2023-12-20T10:18:54;4.30;;;0.90;;
8151;SDS011;4117;53.622;9.958;2023-12-20T10:21:21;4.90;;;1.17;;
8151;SDS011;4117;53.622;9.958;2023-12-20T10:23:52;8.50;;;1.30;;
8151;SDS011;4117;53.622;9.958;2023-12-20T10:26:20;3.90;;;1.10;;
8151;SDS011;4117;53.622;9.958;2023-12-20T10:28:50;2.87;;;0.90;;
8151;SDS011;4117;53.622;9.958;2023-12-20T10:31:27;6.83;;;1.17;;
8151;SDS011;4117;53.622;9.958;2023-12-20T10:33:55;7.03;;;1.37;;
8151;SDS011;4117;53.622;9.958;2023-12-20T10:36:24;6.43;;;1.20;;
8151;SDS011;4117;53.622;9.958;2023-12-20T10:38:54;6.43;;;1.20;;
8151;SDS011;4117;53.622;9.958;2023-12-20T10:41:24;5.20;;;1.13;;
8151;SDS011;4117;53.622;9.958;2023-12-20T10:43:53;5.60;;;1.20;;
8151;SDS011;4117;53.622;9.958;2023-12-20T10:46:25;5.37;;;1.00;;
8151;SDS011;4117;53.622;9.958;2023-12-20T10:48:53;3.50;;;1.30;;
8151;SDS011;4117;53.622;9.958;2023-12-20T10:51:21;4.43;;;1.00;;
8151;SDS011;4117;53.622;9.958;2023-12-20T10:53:51;5.20;;;1.60;;
8151;SDS011;4117;53.622;9.958;2023-12-20T10:56:21;5.13;;;1.40;;
8151;SDS011;4117;53.622;9.958;2023-12-20T10:58:48;4.63;;;1.47;;
8151;SDS011;4117;53.622;9.958;2023-12-20T11:01:16;3.50;;;1.20;;
8151;SDS011;4117;53.622;9.958;2023-12-20T11:03:47;6.10;;;1.37;;
8151;SDS011;4117;53.622;9.958;2023-12-20T11:06:26;5.83;;;1.40;;
8151;SDS011;4117;53.622;9.958;2023-12-20T11:09:03;7.57;;;1.23;;
8151;SDS011;4117;53.622;9.958;2023-12-20T11:11:39;10.47;;;1.60;;
8151;SDS011;4117;53.622;9.958;2023-12-20T11:14:18;5.13;;;1.30;;
8151;SDS011;4117;53.622;9.958;2023-12-20T11:16:49;7.33;;;1.40;;
8151;SDS011;4117;53.622;9.958;2023-12-20T11:19:17;5.83;;;1.47;;
8151;SDS011;4117;53.622;9.958;2023-12-20T11:21:44;6.87;;;1.90;;
8151;SDS011;4117;53.622;9.958;2023-12-20T11:24:14;6.13;;;1.40;;
8151;SDS011;4117;53.622;9.958;2023-12-20T11:26:46;3.93;;;1.50;;
8151;SDS011;4117;53.622;9.958;2023-12-20T11:29:29;3.53;;;1.03;;
8151;SDS011;4117;53.622;9.958;2023-12-20T11:31:57;3.77;;;0.80;;
8151;SDS011;4117;53.622;9.958;2023-12-20T11:34:26;3.23;;;0.83;;
8151;SDS011;4117;53.622;9.958;2023-12-20T11:36:57;4.53;;;1.23;;
8151;SDS011;4117;53.622;9.958;2023-12-20T11:39:27;3.17;;;0.93;;
8151;SDS011;4117;53.622;9.958;2023-12-20T11:41:55;4.97;;;1.27;;
8151;SDS011;4117;53.622;9.958;2023-12-20T11:44:25;6.93;;;1.37;;
8151;SDS011;4117;53.622;9.958;2023-12-20T11:46:52;6.40;;;1.80;;
8151;SDS011;4117;53.622;9.958;2023-12-20T11:49:22;4.70;;;1.50;;
8151;SDS011;4117;53.622;9.958;2023-12-20T11:51:50;9.20;;;2.00;;
8151;SDS011;4117;53.622;9.958;2023-12-20T11:54:17;11.80;;;2.60;;
8151;SDS011;4117;53.622;9.958;2023-12-20T11:56:45;8.40;;;2.00;;
8151;SDS011;4117;53.622;9.958;2023-12-20T11:59:13;5.00;;;1.47;;
8151;SDS011;4117;53.622;9.958;2023-12-20T12:01:47;12.37;;;2.20;;
8151;SDS011;4117;53.622;9.958;2023-12-20T12:04:14;10.47;;;2.07;;
8151;SDS011;4117;53.622;9.958;2023-12-20T12:06:42;9.53;;;2.10;;
8151;SDS011;4117;53.622;9.958;2023-12-20T12:09:09;8.90;;;1.87;;
8151;SDS011;4117;53.622;9.958;2023-12-20T12:11:36;11.10;;;2.10;;
8151;SDS011;4117;53.622;9.958;2023-12-20T12:14:06;12.03;;;2.80;;
8151;SDS011;4117;53.622;9.958;2023-12-20T12:16:33;12.37;;;2.50;;
8151;SDS011;4117;53.622;9.958;2023-12-20T12:19:00;10.27;;;2.10;;
8151;SDS011;4117;53.622;9.958;2023-12-20T12:21:27;15.50;;;2.70;;
8151;SDS011;4117;53.622;9.958;2023-12-20T12:24:06;14.23;;;2.83;;
8151;SDS011;4117;53.622;9.958;2023-12-20T12:26:33;14.47;;;2.90;;
8151;SDS011;4117;53.622;9.958;2023-12-20T12:29:00;17.83;;;3.13;;
8151;SDS011;4117;53.622;9.958;2023-12-20T12:31:29;12.67;;;2.80;;
8151;SDS011;4117;53.622;9.958;2023-12-20T12:33:56;12.67;;;2.70;;
8151;SDS011;4117;53.622;9.958;2023-12-20T12:36:23;15.90;;;2.90;;
8151;SDS011;4117;53.622;9.958;2023-12-20T12:38:50;12.30;;;2.40;;
8151;SDS011;4117;53.622;9.958;2023-12-20T12:41:17;12.73;;;2.50;;
8151;SDS011;4117;53.622;9.958;2023-12-20T12:43:44;13.67;;;2.77;;
8151;SDS011;4117;53.622;9.958;2023-12-20T12:46:11;13.07;;;2.83;;
8151;SDS011;4117;53.622;9.958;2023-12-20T12:48:39;12.00;;;2.30;;
8151;SDS011;4117;53.622;9.958;2023-12-20T12:51:06;14.00;;;2.70;;
8151;SDS011;4117;53.622;9.958;2023-12-20T12:53:37;10.50;;;2.37;;
8151;SDS011;4117;53.622;9.958;2023-12-20T12:56:04;14.70;;;2.83;;
8151;SDS011;4117;53.622;9.958;2023-12-20T12:58:31;10.50;;;2.40;;
8151;SDS011;4117;53.622;9.958;2023-12-20T13:00:59;17.70;;;3.20;;
8151;SDS011;4117;53.622;9.958;2023-12-20T13:03:25;15.00;;;3.07;;
8151;SDS011;4117;53.622;9.958;2023-12-20T13:05:54;15.93;;;3.13;;
8151;SDS011;4117;53.622;9.958;2023-12-20T13:08:21;12.00;;;2.67;;
8151;SDS011;4117;53.622;9.958;2023-12-20T13:10:48;11.10;;;2.80;;
8151;SDS011;4117;53.622;9.958;2023-12-20T13:13:15;16.03;;;2.97;;
8151;SDS011;4117;53.622;9.958;2023-12-20T13:15:42;15.60;;;3.40;;
8151;SDS011;4117;53.622;9.958;2023-12-20T13:18:15;13.47;;;2.90;;
8151;SDS011;4117;53.622;9.958;2023-12-20T13:20:43;16.30;;;2.93;;
8151;SDS011;4117;53.622;9.958;2023-12-20T13:23:11;16.40;;;3.13;;
8151;SDS011;4117;53.622;9.958;2023-12-20T13:25:38;17.27;;;2.93;;
8151;SDS011;4117;53.622;9.958;2023-12-20T13:28:05;14.90;;;2.93;;
8151;SDS011;4117;53.622;9.958;2023-12-20T13:30:33;14.83;;;3.03;;
8151;SDS011;4117;53.622;9.958;2023-12-20T13:33:00;20.83;;;3.23;;
8151;SDS011;4117;53.622;9.958;2023-12-20T13:35:27;17.43;;;2.80;;
8151;SDS011;4117;53.622;9.958;2023-12-20T13:37:54;18.70;;;3.87;;
8151;SDS011;4117;53.622;9.958;2023-12-20T13:40:23;19.87;;;3.30;;
8151;SDS011;4117;53.622;9.958;2023-12-20T13:42:50;18.87;;;3.50;;
8151;SDS011;4117;53.622;9.958;2023-12-20T13:45:17;14.80;;;3.37;;
8151;SDS011;4117;53.622;9.958;2023-12-20T13:47:44;15.30;;;3.57;;
8151;SDS011;4117;53.622;9.958;2023-12-20T13:50:11;18.53;;;4.10;;
8151;SDS011;4117;53.622;9.958;2023-12-20T13:52:38;13.50;;;3.23;;
8151;SDS011;4117;53.622;9.958;2023-12-20T13:55:06;14.00;;;3.07;;
8151;SDS011;4117;53.622;9.958;2023-12-20T13:57:34;16.47;;;4.03;;
8151;SDS011;4117;53.622;9.958;2023-12-20T14:00:05;15.47;;;3.10;;
8151;SDS011;4117;53.622;9.958;2023-12-20T14:02:39;17.63;;;4.33;;
8151;SDS011;4117;53.622;9.958;2023-12-20T14:05:06;19.20;;;3.73;;
8151;SDS011;4117;53.622;9.958;2023-12-20T14:07:34;15.23;;;4.03;;
8151;SDS011;4117;53.622;9.958;2023-12-20T14:10:01;23.73;;;4.03;;
8151;SDS011;4117;53.622;9.958;2023-12-20T14:12:28;18.63;;;3.60;;
8151;SDS011;4117;53.622;9.958;2023-12-20T14:14:56;18.83;;;4.17;;
8151;SDS011;4117;53.622;9.958;2023-12-20T14:17:23;13.40;;;3.20;;
8151;SDS011;4117;53.622;9.958;2023-12-20T14:19:50;17.43;;;3.73;;
8151;SDS011;4117;53.622;9.958;2023-12-20T14:22:19;11.90;;;3.40;;
8151;SDS011;4117;53.622;9.958;2023-12-20T14:24:46;14.13;;;4.17;;
8151;SDS011;4117;53.622;9.958;2023-12-20T14:27:13;17.67;;;4.00;;
8151;SDS011;4117;53.622;9.958;2023-12-20T14:29:40;15.67;;;4.03;;
8151;SDS011;4117;53.622;9.958;2023-12-20T14:32:08;14.70;;;4.53;;
8151;SDS011;4117;53.622;9.958;2023-12-20T14:34:35;17.00;;;3.73;;
8151;SDS011;4117;53.622;9.958;2023-12-20T14:37:03;11.40;;;3.20;;
8151;SDS011;4117;53.622;9.958;2023-12-20T14:39:30;17.00;;;3.67;;
8151;SDS011;4117;53.622;9.958;2023-12-20T14:41:57;14.33;;;3.57;;
8151;SDS011;4117;53.622;9.958;2023-12-20T14:44:24;17.90;;;4.17;;
8151;SDS011;4117;53.622;9.958;2023-12-20T14:46:51;20.73;;;4.03;;
8151;SDS011;4117;53.622;9.958;2023-12-20T14:49:19;16.20;;;3.53;;
8151;SDS011;4117;53.622;9.958;2023-12-20T14:51:46;19.93;;;4.50;;
8151;SDS011;4117;53.622;9.958;2023-12-20T14:54:13;12.57;;;3.20;;
8151;SDS011;4117;53.622;9.958;2023-12-20T14:56:40;14.17;;;3.20;;
8151;SDS011;4117;53.622;9.958;2023-12-20T14:59:07;14.43;;;3.20;;
8151;SDS011;4117;53.622;9.958;2023-12-20T15:01:34;10.83;;;2.90;;
8151;SDS011;4117;53.622;9.958;2023-12-20T15:04:01;17.50;;;3.67;;
8151;SDS011;4117;53.622;9.958;2023-12-20T15:06:30;20.97;;;4.20;;
8151;SDS011;4117;53.622;9.958;2023-12-20T15:08:58;16.23;;;3.63;;